TimeEDT,TemperatureF,Dew PointF,Humidity,Sea Level PressureIn,VisibilityMPH,Wind Direction,Wind SpeedMPH,Gust SpeedMPH,PrecipitationIn,Events,Conditions,WindDirDegrees,DateUTC
12:54 AM,34.0,33.1,96,30.33,-9999.0,North,-9999.0,-,N/A,,Unknown,0,2012-10-09 04:54:00
1:54 AM,33.1,33.1,100,30.33,-9999.0,North,-9999.0,-,N/A,,Unknown,0,2012-10-09 05:54:00
2:54 AM,33.1,32.0,96,30.33,-9999.0,North,-9999.0,-,N/A,,Unknown,0,2012-10-09 06:54:00
3:54 AM,32.0,32.0,100,30.32,-9999.0,North,-9999.0,-,N/A,,Unknown,0,2012-10-09 07:54:00
4:54 AM,30.9,30.9,100,30.34,-9999.0,North,-9999.0,-,N/A,,Unknown,0,2012-10-09 08:54:00
5:54 AM,30.9,30.9,100,30.34,-9999.0,North,-9999.0,-,N/A,,Unknown,0,2012-10-09 09:54:00
6:54 AM,30.0,30.0,100,30.34,-9999.0,North,-9999.0,-,N/A,,Unknown,0,2012-10-09 10:54:00
7:54 AM,30.9,30.9,100,30.35,-9999.0,North,-9999.0,-,N/A,,Unknown,0,2012-10-09 11:54:00
8:54 AM,32.0,32.0,100,30.34,-9999.0,North,-9999.0,-,N/A,,Unknown,0,2012-10-09 12:54:00
9:54 AM,34.0,33.1,96,30.33,-9999.0,North,-9999.0,-,N/A,,Unknown,0,2012-10-09 13:54:00
10:54 AM,43.0,36.0,76,30.31,-9999.0,North,-9999.0,-,N/A,,Unknown,0,2012-10-09 14:54:00
11:54 AM,50.0,39.0,66,30.30,-9999.0,North,-9999.0,-,N/A,,Unknown,0,2012-10-09 15:54:00
12:54 PM,52.0,39.0,61,30.26,-9999.0,North,-9999.0,-,N/A,,Unknown,0,2012-10-09 16:54:00
1:54 PM,54.0,39.0,57,30.22,-9999.0,North,-9999.0,-,N/A,,Unknown,0,2012-10-09 17:54:00
2:54 PM,55.9,39.9,55,30.20,-9999.0,North,-9999.0,-,N/A,,Unknown,0,2012-10-09 18:54:00
3:54 PM,55.0,39.9,57,30.19,-9999.0,North,-9999.0,-,N/A,,Unknown,0,2012-10-09 19:54:00
4:54 PM,54.0,41.0,62,30.18,-9999.0,North,-9999.0,-,N/A,,Unknown,0,2012-10-09 20:54:00
5:54 PM,54.0,41.0,62,30.18,-9999.0,North,-9999.0,-,N/A,,Unknown,0,2012-10-09 21:54:00
6:54 PM,52.0,42.1,69,30.17,-9999.0,North,-9999.0,-,N/A,,Unknown,0,2012-10-09 22:54:00
7:54 PM,50.0,43.0,77,30.17,-9999.0,North,-9999.0,-,N/A,,Unknown,0,2012-10-09 23:54:00
8:54 PM,50.0,42.1,74,30.17,-9999.0,North,-9999.0,-,N/A,,Unknown,0,2012-10-10 00:54:00
9:54 PM,48.9,43.0,80,30.16,-9999.0,North,-9999.0,-,N/A,,Unknown,0,2012-10-10 01:54:00
10:54 PM,46.9,43.0,86,30.14,-9999.0,North,-9999.0,-,N/A,,Unknown,0,2012-10-10 02:54:00
11:54 PM,46.0,42.1,86,30.12,-9999.0,North,-9999.0,-,N/A,,Unknown,0,2012-10-10 03:54:00